Time;durP1;ratioP1;P1;durP2;ratioP2;P2;SDS_P1;SDS_P2;PMS_P1;PMS_P2;Temp;Humidity;BMP_temperature;BMP_pressure;BME280_temperature;BME280_humidity;BME280_pressure;Samples;Min_cycle;Max_cycle;Signal;HPM_P1;HPM_P2
2020/12/05 00:01:02;;;;;;;30.00;16.50;;;2.30;99.90;;;;;;5110909;28;20054;-68
2020/12/05 00:03:28;;;;;;;26.63;16.55;;;2.30;99.90;;;;;;5111590;28;20062;-67
2020/12/05 00:05:55;;;;;;;26.67;17.13;;;2.30;99.90;;;;;;5109883;28;20405;-67
2020/12/05 00:08:21;;;;;;;27.77;16.65;;;2.40;99.90;;;;;;5105119;28;20047;-68
2020/12/05 00:10:48;;;;;;;31.17;17.20;;;2.30;99.90;;;;;;5111003;28;20414;-68
2020/12/05 00:13:15;;;;;;;27.48;16.85;;;2.30;99.90;;;;;;5112331;28;20055;-68
2020/12/05 00:15:41;;;;;;;26.08;17.52;;;2.40;99.90;;;;;;5111455;28;20513;-68
2020/12/05 00:18:08;;;;;;;26.55;17.70;;;2.40;99.90;;;;;;5111402;28;20043;-68
2020/12/05 00:20:34;;;;;;;26.55;16.77;;;2.40;99.90;;;;;;5110765;28;20055;-68
2020/12/05 00:23:01;;;;;;;27.42;18.05;;;2.40;99.90;;;;;;5112622;28;20047;-68
2020/12/05 00:25:27;;;;;;;26.23;16.48;;;2.40;99.90;;;;;;5112001;28;20039;-68
2020/12/05 00:27:54;;;;;;;27.42;17.38;;;2.40;99.90;;;;;;5109708;28;20429;-68
2020/12/05 00:30:20;;;;;;;26.50;17.08;;;2.40;99.90;;;;;;5111125;28;20413;-68
2020/12/05 00:32:47;;;;;;;26.35;17.30;;;2.40;99.90;;;;;;5109894;28;20063;-69
2020/12/05 00:35:14;;;;;;;28.08;17.27;;;2.40;99.90;;;;;;5109744;28;20055;-68
2020/12/05 00:37:41;;;;;;;28.58;17.30;;;2.40;99.90;;;;;;5109199;28;20054;-69
2020/12/05 00:40:07;;;;;;;28.73;17.40;;;2.40;99.90;;;;;;5112398;28;20394;-66
2020/12/05 00:42:34;;;;;;;28.45;17.90;;;2.40;99.90;;;;;;5093700;28;20409;-68
2020/12/05 00:45:00;;;;;;;27.60;17.52;;;2.40;99.90;;;;;;5112479;28;20519;-67
2020/12/05 00:47:28;;;;;;;26.77;16.73;;;2.40;99.90;;;;;;5110360;28;20052;-67
2020/12/05 00:49:56;;;;;;;27.30;17.08;;;2.40;99.90;;;;;;5110945;28;20040;-68
2020/12/05 00:52:25;;;;;;;28.88;17.98;;;2.30;99.90;;;;;;5111796;28;20048;-66
2020/12/05 00:54:51;;;;;;;26.05;16.83;;;2.30;99.90;;;;;;5110447;28;20500;-66
2020/12/05 00:57:17;;;;;;;28.05;17.67;;;2.30;99.90;;;;;;5110429;28;20477;-69
2020/12/05 00:59:44;;;;;;;32.30;19.08;;;2.20;99.90;;;;;;5108948;28;20061;-68
2020/12/05 01:02:10;;;;;;;28.90;17.90;;;2.20;99.90;;;;;;5109562;28;20054;-68
2020/12/05 01:04:37;;;;;;;28.52;18.67;;;2.10;99.90;;;;;;5111110;28;20135;-66
2020/12/05 01:07:03;;;;;;;30.85;18.48;;;2.00;99.90;;;;;;5110376;28;20478;-68
2020/12/05 01:09:30;;;;;;;29.38;18.05;;;1.90;99.90;;;;;;5096389;28;20059;-69
2020/12/05 01:11:56;;;;;;;25.13;17.75;;;1.80;99.90;;;;;;5111184;28;20035;-68
2020/12/05 01:14:23;;;;;;;29.27;18.77;;;1.80;99.90;;;;;;5110933;28;20047;-68
2020/12/05 01:16:49;;;;;;;27.67;18.38;;;1.70;99.90;;;;;;5110764;28;20047;-68
2020/12/05 01:19:16;;;;;;;29.33;17.85;;;1.60;99.90;;;;;;5111625;28;20486;-69
2020/12/05 01:21:45;;;;;;;26.83;17.38;;;1.50;99.90;;;;;;5110552;28;20548;-68
2020/12/05 01:24:12;;;;;;;25.58;16.83;;;1.40;99.90;;;;;;5096569;28;20055;-70
2020/12/05 01:26:38;;;;;;;25.90;16.65;;;1.30;99.90;;;;;;5108853;28;20044;-68
2020/12/05 01:29:05;;;;;;;28.80;17.83;;;1.20;99.90;;;;;;5108792;28;20040;-68
2020/12/05 01:31:31;;;;;;;29.40;17.63;;;1.10;99.90;;;;;;5110640;28;20463;-68
2020/12/05 01:34:02;;;;;;;29.45;18.27;;;1.10;99.90;;;;;;5109843;28;20422;-68
2020/12/05 01:36:30;;;;;;;24.83;16.98;;;1.10;99.90;;;;;;5111240;28;20083;-69
2020/12/05 01:38:57;;;;;;;28.40;16.95;;;1.00;99.90;;;;;;5109990;28;20050;-68
2020/12/05 01:41:23;;;;;;;29.88;18.85;;;1.00;99.90;;;;;;5109511;28;20051;-68
2020/12/05 01:43:50;;;;;;;30.88;18.10;;;0.90;99.90;;;;;;5109446;28;20035;-68
2020/12/05 01:46:41;;;;;;;27.55;17.42;;;1.00;99.90;;;;;;5109451;28;20054;-69
2020/12/05 01:49:11;;;;;;;29.45;18.10;;;1.00;99.90;;;;;;5103652;28;20039;-68
2020/12/05 01:51:38;;;;;;;31.23;19.33;;;0.90;99.90;;;;;;5091411;28;20391;-69
2020/12/05 01:54:07;;;;;;;32.47;19.48;;;0.90;99.90;;;;;;5107476;28;20067;-69
2020/12/05 01:56:34;;;;;;;33.17;19.15;;;0.80;99.90;;;;;;5107678;28;20051;-68
2020/12/05 01:59:00;;;;;;;28.83;17.65;;;0.80;99.90;;;;;;5109685;28;20062;-68
2020/12/05 02:01:28;;;;;;;31.73;18.73;;;0.80;99.90;;;;;;5106663;28;20047;-68
2020/12/05 02:04:01;;;;;;;34.17;18.98;;;0.70;99.90;;;;;;5091376;28;20052;-69
2020/12/05 02:06:45;;;;;;;32.88;20.00;;;0.70;99.90;;;;;;5101192;28;20482;-69
2020/12/05 02:09:21;;;;;;;33.63;19.70;;;0.60;99.90;;;;;;5082346;28;20040;-69
2020/12/05 02:12:17;;;;;;;33.15;20.73;;;0.60;99.90;;;;;;5108205;28;20710;-68
2020/12/05 02:14:48;;;;;;;34.88;19.98;;;0.60;99.90;;;;;;5105757;28;20066;-68
2020/12/05 02:17:15;;;;;;;34.70;20.92;;;0.50;99.90;;;;;;5108739;28;20051;-69
2020/12/05 02:19:51;;;;;;;33.47;19.80;;;0.50;99.90;;;;;;5092126;28;20056;-68
2020/12/05 02:22:35;;;;;;;33.28;20.20;;;0.40;99.90;;;;;;5107309;28;20051;-68
2020/12/05 02:25:02;;;;;;;35.75;20.05;;;0.40;99.90;;;;;;5109732;28;20393;-68
2020/12/05 02:27:31;;;;;;;33.15;20.02;;;0.40;99.90;;;;;;5107831;28;20048;-68
2020/12/05 02:29:58;;;;;;;36.55;21.60;;;0.40;99.90;;;;;;5108942;28;20539;-67
2020/12/05 02:32:24;;;;;;;34.47;20.27;;;0.40;99.90;;;;;;5108675;28;20407;-68
2020/12/05 02:34:51;;;;;;;38.60;21.27;;;0.30;99.90;;;;;;5109239;28;20065;-68
2020/12/05 02:37:22;;;;;;;36.33;22.05;;;0.30;99.90;;;;;;5109005;28;20039;-68
2020/12/05 02:39:50;;;;;;;36.00;20.67;;;0.30;99.90;;;;;;5089211;28;20048;-70
2020/12/05 02:42:17;;;;;;;34.45;21.15;;;0.30;99.90;;;;;;5110082;28;20047;-68
2020/12/05 02:44:52;;;;;;;38.63;21.05;;;0.30;99.90;;;;;;5108475;28;20083;-68
2020/12/05 02:47:19;;;;;;;35.03;20.35;;;0.30;99.90;;;;;;5108604;28;20044;-68
2020/12/05 02:49:46;;;;;;;34.00;20.10;;;0.30;99.90;;;;;;5108375;28;20062;-69
2020/12/05 02:52:14;;;;;;;33.65;19.23;;;0.40;99.90;;;;;;5107536;28;20528;-69
2020/12/05 02:54:41;;;;;;;35.08;19.95;;;0.40;99.90;;;;;;5109967;28;20460;-69
2020/12/05 02:57:07;;;;;;;33.78;20.75;;;0.40;99.90;;;;;;5109207;28;20421;-69
2020/12/05 02:59:34;;;;;;;33.70;20.70;;;0.30;99.90;;;;;;5108970;28;20055;-69
2020/12/05 03:02:00;;;;;;;36.08;20.35;;;0.30;99.90;;;;;;5108882;28;20047;-68
2020/12/05 03:04:27;;;;;;;35.45;21.25;;;0.20;99.90;;;;;;5108631;28;20054;-69
2020/12/05 03:06:54;;;;;;;35.05;20.05;;;0.20;99.90;;;;;;5107759;28;20428;-69
2020/12/05 03:09:21;;;;;;;32.88;20.13;;;0.00;99.90;;;;;;5109884;28;20055;-69
2020/12/05 03:11:47;;;;;;;35.42;20.17;;;0.00;99.90;;;;;;5107123;28;20508;-69
2020/12/05 03:14:14;;;;;;;42.22;22.13;;;-0.10;99.90;;;;;;5091657;28;20501;-68
2020/12/05 03:16:40;;;;;;;36.30;20.70;;;-0.10;99.90;;;;;;5106686;28;20047;-70
2020/12/05 03:19:07;;;;;;;33.58;20.40;;;-0.20;99.90;;;;;;5107320;28;20059;-68
2020/12/05 03:21:34;;;;;;;38.13;21.52;;;-0.30;99.90;;;;;;5109233;28;20577;-68
2020/12/05 03:24:00;;;;;;;39.40;22.55;;;-0.40;99.90;;;;;;5089771;28;20053;-67
2020/12/05 03:26:27;;;;;;;34.95;20.63;;;-0.40;99.90;;;;;;5108914;28;20039;-69
2020/12/05 03:28:55;;;;;;;33.15;19.83;;;-0.40;99.90;;;;;;5088620;28;20632;-69
2020/12/05 03:31:33;;;;;;;34.65;20.90;;;-0.40;99.90;;;;;;5100515;28;20058;-68
2020/12/05 03:34:00;;;;;;;36.33;20.75;;;-0.50;99.90;;;;;;5090639;28;20047;-68
2020/12/05 03:36:27;;;;;;;35.78;20.45;;;-0.50;99.90;;;;;;5109343;28;20554;-68
2020/12/05 03:38:54;;;;;;;36.08;20.92;;;-0.50;99.90;;;;;;5109934;28;20063;-68
2020/12/05 03:41:23;;;;;;;37.13;20.73;;;-0.50;99.90;;;;;;5107835;28;20402;-69
2020/12/05 03:43:50;;;;;;;38.15;21.05;;;-0.50;99.90;;;;;;5108593;28;20040;-68
2020/12/05 03:46:17;;;;;;;36.30;21.98;;;-0.60;99.90;;;;;;5088603;28;20051;-68
2020/12/05 03:48:44;;;;;;;36.95;20.85;;;-0.60;99.90;;;;;;5109647;28;20048;-68
2020/12/05 03:51:10;;;;;;;36.47;21.88;;;-0.60;99.90;;;;;;5112414;28;20040;-68
2020/12/05 03:53:37;;;;;;;35.00;20.25;;;-0.60;99.90;;;;;;5093798;28;20043;-68
2020/12/05 03:56:04;;;;;;;39.80;21.80;;;-0.60;99.90;;;;;;5112875;28;20158;-68
2020/12/05 03:58:31;;;;;;;40.08;21.77;;;-0.50;99.90;;;;;;5094328;28;20051;-69
2020/12/05 04:00:58;;;;;;;36.42;21.88;;;-0.40;99.90;;;;;;5111828;28;20454;-69
2020/12/05 04:03:24;;;;;;;37.45;20.48;;;-0.40;99.90;;;;;;5094155;28;20062;-68
2020/12/05 04:05:51;;;;;;;42.35;22.90;;;-0.40;99.90;;;;;;5111581;28;20622;-69
2020/12/05 04:08:17;;;;;;;37.63;21.35;;;-0.50;99.90;;;;;;5111241;28;20044;-69
2020/12/05 04:10:44;;;;;;;37.72;21.17;;;-0.50;99.90;;;;;;5111988;28;20052;-69
2020/12/05 04:13:12;;;;;;;36.75;21.83;;;-0.50;99.90;;;;;;5109140;28;20055;-69
2020/12/05 04:15:38;;;;;;;38.70;21.08;;;-0.50;99.90;;;;;;5112044;28;20044;-68
2020/12/05 04:18:05;;;;;;;39.05;21.80;;;-0.50;99.90;;;;;;5110537;28;20054;-68
2020/12/05 04:20:31;;;;;;;38.22;21.38;;;-0.50;99.90;;;;;;5111603;28;20040;-69
2020/12/05 04:22:58;;;;;;;39.42;21.67;;;-0.50;99.90;;;;;;5110759;28;20040;-69
2020/12/05 04:25:24;;;;;;;38.75;21.30;;;-0.50;99.90;;;;;;5111924;28;20047;-69
2020/12/05 04:27:51;;;;;;;39.05;21.15;;;-0.50;99.90;;;;;;5107754;28;20274;-70
2020/12/05 04:30:18;;;;;;;35.88;20.92;;;-0.40;99.90;;;;;;5108295;28;20039;-69
2020/12/05 04:32:45;;;;;;;41.22;22.50;;;-0.30;99.90;;;;;;5110953;28;20057;-69
2020/12/05 04:35:11;;;;;;;36.40;22.00;;;-0.30;99.90;;;;;;5112070;28;20052;-70
2020/12/05 04:37:37;;;;;;;36.45;20.17;;;-0.30;99.90;;;;;;5111338;28;20044;-69
2020/12/05 04:40:06;;;;;;;37.95;21.35;;;-0.30;99.90;;;;;;5109859;28;20528;-69
2020/12/05 04:42:33;;;;;;;38.22;22.08;;;-0.20;99.90;;;;;;5092864;28;20051;-68
2020/12/05 04:45:00;;;;;;;37.08;20.52;;;-0.10;99.90;;;;;;5092807;28;20066;-69
2020/12/05 04:47:27;;;;;;;38.75;21.33;;;0.00;99.90;;;;;;5109315;28;20450;-69
2020/12/05 04:49:56;;;;;;;39.25;21.67;;;0.10;99.90;;;;;;5093018;28;20048;-68
2020/12/05 04:52:40;;;;;;;41.95;22.50;;;0.20;99.90;;;;;;5109747;28;20039;-69
2020/12/05 04:55:08;;;;;;;34.25;20.00;;;0.20;99.90;;;;;;5093006;28;20417;-69
2020/12/05 04:57:43;;;;;;;36.35;20.90;;;0.30;99.90;;;;;;5091862;28;20121;-70
2020/12/05 05:00:10;;;;;;;37.53;21.50;;;0.20;99.90;;;;;;5091616;28;20390;-70
2020/12/05 05:02:41;;;;;;;39.60;20.48;;;0.30;99.90;;;;;;5109308;28;20063;-69
2020/12/05 05:05:14;;;;;;;35.15;19.95;;;0.20;99.90;;;;;;5109857;28;20047;-69
2020/12/05 05:07:51;;;;;;;34.15;21.23;;;0.20;99.90;;;;;;5108905;28;20051;-69
2020/12/05 05:10:25;;;;;;;33.97;19.77;;;0.20;99.90;;;;;;5110599;28;20042;-69
2020/12/05 05:13:01;;;;;;;33.40;19.33;;;0.20;99.90;;;;;;5110303;28;20131;-69
2020/12/05 05:15:32;;;;;;;34.15;20.10;;;0.20;99.90;;;;;;5091971;28;20065;-68
2020/12/05 05:18:03;;;;;;;32.13;19.83;;;0.20;99.90;;;;;;5109796;28;20048;-69
2020/12/05 05:20:35;;;;;;;34.72;20.23;;;0.20;99.90;;;;;;5110165;28;20044;-69
2020/12/05 05:23:20;;;;;;;;;;;0.20;99.90;;;;;;5111155;28;20433;-69
2020/12/05 05:26:01;;;;;;;36.90;19.73;;;0.20;99.90;;;;;;5109453;28;20325;-69
2020/12/05 05:28:29;;;;;;;35.83;20.05;;;0.10;99.90;;;;;;5104400;28;20050;-69
2020/12/05 05:33:53;;;;;;;38.08;20.02;;;0.10;99.90;;;;;;5108661;28;20043;-69
2020/12/05 05:36:30;;;;;;;35.47;21.23;;;0.10;99.90;;;;;;5095524;28;20049;-69
2020/12/05 05:39:10;;;;;;;36.80;20.63;;;0.10;99.90;;;;;;5110648;28;20509;-69
2020/12/05 05:41:38;;;;;;;36.25;20.38;;;0.10;99.90;;;;;;5106921;28;20058;-69
2020/12/05 05:44:10;;;;;;;36.15;21.13;;;0.10;99.90;;;;;;5110074;28;20386;-69
2020/12/05 05:46:46;;;;;;;38.88;21.92;;;0.00;99.90;;;;;;5107857;28;20051;-69
2020/12/05 05:49:15;;;;;;;37.90;22.27;;;0.00;99.90;;;;;;5110398;28;20051;-68
2020/12/05 05:51:43;;;;;;;39.15;22.55;;;0.10;99.90;;;;;;5110228;28;20070;-68
2020/12/05 05:54:27;;;;;;;41.35;21.23;;;0.10;99.90;;;;;;5108711;28;20069;-68
2020/12/05 05:57:15;;;;;;;34.60;20.17;;;0.10;99.90;;;;;;5100550;28;20061;-69
2020/12/05 05:59:44;;;;;;;37.38;21.20;;;0.20;99.90;;;;;;5109499;28;20055;-68
2020/12/05 06:02:15;;;;;;;43.95;22.70;;;0.20;99.90;;;;;;5089689;28;20430;-68
2020/12/05 06:04:47;;;;;;;41.57;21.07;;;0.20;99.90;;;;;;5109100;28;20047;-68
2020/12/05 06:07:16;;;;;;;38.55;20.90;;;0.20;99.90;;;;;;5107688;28;20054;-68
2020/12/05 06:09:49;;;;;;;38.75;21.63;;;0.10;99.90;;;;;;5108359;28;20474;-68
2020/12/05 06:12:30;;;;;;;38.17;20.90;;;0.10;99.90;;;;;;5093642;28;20040;-68
2020/12/05 06:14:56;;;;;;;39.33;20.85;;;0.10;99.90;;;;;;5104339;28;20062;-68
2020/12/05 06:17:24;;;;;;;40.00;21.52;;;0.10;99.90;;;;;;5107643;28;20054;-68
2020/12/05 06:19:52;;;;;;;40.72;22.98;;;0.10;99.90;;;;;;5109670;28;20073;-68
2020/12/05 06:22:31;;;;;;;42.38;22.13;;;0.10;99.90;;;;;;5090228;28;20047;-68
2020/12/05 06:25:12;;;;;;;42.63;22.73;;;0.10;99.90;;;;;;5109135;28;20047;-69
2020/12/05 06:28:05;;;;;;;40.03;22.48;;;0.10;99.90;;;;;;5107683;28;20043;-68
2020/12/05 06:30:31;;;;;;;;;;;0.20;99.90;;;;;;5091203;28;20052;-68
2020/12/05 06:32:58;;;;;;;38.83;21.88;;;0.20;99.90;;;;;;5091756;28;19919;-67
2020/12/05 06:35:24;;;;;;;41.60;21.95;;;0.30;99.90;;;;;;5109790;28;20053;-68
2020/12/05 06:37:53;;;;;;;48.30;24.65;;;0.30;99.90;;;;;;5090976;28;20405;-68
2020/12/05 06:40:20;;;;;;;40.95;22.80;;;0.30;99.90;;;;;;5109289;28;20129;-70
2020/12/05 06:42:49;;;;;;;45.00;23.38;;;0.30;99.90;;;;;;5108697;28;20070;-68
2020/12/05 06:45:28;;;;;;;42.25;22.70;;;0.30;99.90;;;;;;5109732;28;20108;-68
2020/12/05 06:48:10;;;;;;;40.17;22.05;;;0.30;99.90;;;;;;5107750;28;20054;-68
2020/12/05 06:50:37;;;;;;;42.88;22.55;;;0.30;99.90;;;;;;5109319;28;20350;-68
2020/12/05 06:53:23;;;;;;;42.58;22.52;;;0.30;99.90;;;;;;5106796;28;20066;-69
2020/12/05 06:55:52;;;;;;;40.53;21.40;;;0.30;99.90;;;;;;5107143;28;20044;-68
2020/12/05 06:58:24;;;;;;;40.80;22.85;;;0.40;99.90;;;;;;5108922;28;20048;-68
2020/12/05 07:00:51;;;;;;;;;;;0.40;99.90;;;;;;5109230;28;20055;-67
2020/12/05 07:03:26;;;;;;;41.63;21.00;;;0.50;99.90;;;;;;5107991;28;20350;-67
2020/12/05 07:05:54;;;;;;;40.05;21.73;;;0.50;99.90;;;;;;5089672;28;20058;-68
2020/12/05 07:08:21;;;;;;;40.13;21.88;;;0.60;99.90;;;;;;5108940;28;20047;-69
2020/12/05 07:10:57;;;;;;;41.30;22.92;;;0.60;99.90;;;;;;5107023;28;20061;-68
2020/12/05 07:13:41;;;;;;;45.17;22.45;;;0.70;99.90;;;;;;5109035;28;20406;-68
2020/12/05 07:16:13;;;;;;;39.85;21.52;;;0.80;99.90;;;;;;5090302;28;20054;-68
2020/12/05 07:18:41;;;;;;;;;;;0.80;99.90;;;;;;5090351;28;20048;-68
2020/12/05 07:21:08;;;;;;;35.97;20.45;;;0.90;99.90;;;;;;5107687;28;19938;-68
2020/12/05 07:23:35;;;;;;;42.88;22.50;;;0.90;99.90;;;;;;5110616;28;20051;-67
2020/12/05 07:26:03;;;;;;;39.88;21.95;;;1.00;99.90;;;;;;5113583;28;20040;-68
2020/12/05 07:28:30;;;;;;;38.38;22.10;;;1.00;99.90;;;;;;5110849;28;20052;-70
2020/12/05 07:30:57;;;;;;;39.00;21.88;;;1.00;99.90;;;;;;5112252;28;20165;-69
2020/12/05 07:33:23;;;;;;;39.03;21.83;;;1.10;99.90;;;;;;5113401;28;20448;-69
2020/12/05 07:36:05;;;;;;;41.80;22.40;;;1.10;99.90;;;;;;5111084;28;20050;-68
2020/12/05 07:38:34;;;;;;;41.17;23.03;;;1.10;99.90;;;;;;5112652;28;20044;-68
2020/12/05 07:41:11;;;;;;;40.05;22.67;;;1.20;99.90;;;;;;5112811;28;20048;-68
2020/12/05 07:43:38;;;;;;;36.95;20.90;;;1.20;99.90;;;;;;5101718;28;20050;-68
2020/12/05 07:46:07;;;;;;;41.13;22.80;;;1.20;99.90;;;;;;5093329;28;20070;-68
2020/12/05 07:48:35;;;;;;;40.67;22.42;;;1.30;99.90;;;;;;5092288;28;20050;-68
2020/12/05 07:51:03;;;;;;;41.28;23.80;;;1.30;99.90;;;;;;5110623;28;20043;-68
2020/12/05 07:53:33;;;;;;;38.42;21.65;;;1.40;99.90;;;;;;5083826;28;20040;-68
2020/12/05 07:56:12;;;;;;;41.55;22.27;;;1.40;99.90;;;;;;5111723;28;20440;-68
2020/12/05 07:58:53;;;;;;;40.05;22.45;;;1.40;99.90;;;;;;5098837;28;20086;-67
2020/12/05 08:01:29;;;;;;;43.80;22.85;;;1.50;99.90;;;;;;5112721;28;20442;-68
2020/12/05 08:04:24;;;;;;;42.55;23.02;;;1.50;99.90;;;;;;5113145;28;20051;-67
2020/12/05 08:07:19;;;;;;;41.70;22.40;;;1.50;99.90;;;;;;5111450;28;20424;-68
2020/12/05 08:09:46;;;;;;;43.50;23.30;;;1.60;99.90;;;;;;5110663;28;20421;-68
2020/12/05 08:12:30;;;;;;;45.40;24.92;;;1.60;99.90;;;;;;5093883;28;20092;-68
2020/12/05 08:14:56;;;;;;;43.00;22.33;;;1.70;99.90;;;;;;5110234;28;20063;-67
2020/12/05 08:17:24;;;;;;;42.00;22.08;;;1.70;99.90;;;;;;5110498;28;20048;-68
2020/12/05 08:19:51;;;;;;;46.47;24.60;;;1.70;99.90;;;;;;5110975;28;20044;-67
2020/12/05 08:22:18;;;;;;;44.50;23.60;;;1.70;99.90;;;;;;5110815;27;20043;-67
2020/12/05 08:24:54;;;;;;;42.05;23.35;;;1.80;99.90;;;;;;5093673;28;20048;-67
2020/12/05 08:27:21;;;;;;;43.22;23.80;;;1.90;99.90;;;;;;5112817;28;20434;-68
2020/12/05 08:29:49;;;;;;;39.40;22.05;;;2.00;99.90;;;;;;5110111;28;20048;-67
2020/12/05 08:32:22;;;;;;;43.25;22.80;;;2.00;99.90;;;;;;5110266;28;20490;-67
2020/12/05 08:34:50;;;;;;;40.92;22.15;;;2.10;99.90;;;;;;5085985;28;20047;-68
2020/12/05 08:37:24;;;;;;;42.97;23.48;;;2.10;99.90;;;;;;5101281;28;20047;-68
2020/12/05 08:39:53;;;;;;;38.70;21.00;;;2.10;99.90;;;;;;5110569;28;20075;-67
2020/12/05 08:42:20;;;;;;;40.10;22.20;;;2.10;99.90;;;;;;5109864;28;20047;-68
2020/12/05 08:44:48;;;;;;;41.88;24.70;;;2.10;99.90;;;;;;5093061;28;20054;-67
2020/12/05 08:47:14;;;;;;;48.83;25.83;;;2.20;99.90;;;;;;5109564;28;20056;-69
2020/12/05 08:49:43;;;;;;;39.58;22.35;;;2.20;99.90;;;;;;5111615;28;20058;-68
2020/12/05 08:52:10;;;;;;;42.00;22.75;;;2.30;99.90;;;;;;5111116;28;20500;-69
2020/12/05 08:54:44;;;;;;;39.60;21.85;;;2.30;99.90;;;;;;5110879;28;20047;-69
2020/12/05 08:57:12;;;;;;;37.83;20.65;;;2.40;99.90;;;;;;5092704;28;20742;-68
2020/12/05 08:59:39;;;;;;;39.72;20.67;;;2.50;99.90;;;;;;5092222;28;20507;-69
2020/12/05 09:02:06;;;;;;;43.30;22.65;;;2.60;99.90;;;;;;5110207;28;20055;-68
2020/12/05 09:04:35;;;;;;;39.03;22.20;;;2.70;99.90;;;;;;5111337;28;20377;-68
2020/12/05 09:07:21;;;;;;;40.28;22.45;;;2.70;99.90;;;;;;5109086;28;20043;-68
2020/12/05 09:09:48;;;;;;;39.50;21.92;;;2.80;99.90;;;;;;5105125;28;20412;-69
2020/12/05 09:12:17;;;;;;;40.47;21.58;;;2.90;99.90;;;;;;5112042;28;20043;-68
2020/12/05 09:14:47;;;;;;;39.60;20.27;;;2.90;99.90;;;;;;5111400;28;20134;-68
2020/12/05 09:17:30;;;;;;;35.75;21.77;;;2.90;99.90;;;;;;5111435;28;20044;-69
2020/12/05 09:20:17;;;;;;;37.90;20.50;;;2.90;99.90;;;;;;5093094;28;20410;-69
2020/12/05 09:22:52;;;;;;;36.85;21.25;;;3.00;99.90;;;;;;5111298;28;20144;-68
2020/12/05 09:25:25;;;;;;;38.08;20.52;;;3.10;99.90;;;;;;5110650;28;20078;-68
2020/12/05 09:27:52;;;;;;;35.58;20.85;;;3.20;99.90;;;;;;5111437;28;20081;-69
2020/12/05 09:30:23;;;;;;;35.28;21.33;;;3.30;99.90;;;;;;5110120;28;20506;-69
2020/12/05 09:32:52;;;;;;;42.92;24.10;;;3.40;99.90;;;;;;5108517;28;20052;-69
2020/12/05 09:35:20;;;;;;;38.17;21.63;;;3.40;99.90;;;;;;5110171;28;20516;-69
2020/12/05 09:37:50;;;;;;;41.42;21.02;;;3.40;99.90;;;;;;5091487;28;20127;-69
2020/12/05 09:40:20;;;;;;;35.45;20.48;;;3.40;99.90;;;;;;5110408;28;20054;-68
2020/12/05 09:42:47;;;;;;;40.95;22.27;;;3.40;99.90;;;;;;5110537;28;20055;-69
2020/12/05 09:45:15;;;;;;;34.20;19.95;;;3.50;99.90;;;;;;5109493;28;20052;-69
2020/12/05 09:47:44;;;;;;;37.60;21.48;;;3.60;99.90;;;;;;5092419;28;20043;-69
2020/12/05 09:50:11;;;;;;;41.42;22.08;;;3.70;99.90;;;;;;5092358;28;20043;-69
2020/12/05 09:52:38;;;;;;;33.08;20.50;;;3.70;99.90;;;;;;5109838;28;20047;-67
2020/12/05 09:55:05;;;;;;;35.80;21.10;;;3.70;99.90;;;;;;5109626;28;20056;-68
2020/12/05 09:57:31;;;;;;;37.60;21.48;;;3.70;99.90;;;;;;5107504;28;20059;-68
2020/12/05 09:59:58;;;;;;;38.85;21.70;;;3.80;99.90;;;;;;5110428;28;20047;-68
2020/12/05 10:02:25;;;;;;;35.53;20.50;;;3.80;99.90;;;;;;5106758;28;20052;-68
2020/12/05 10:04:51;;;;;;;39.70;24.40;;;3.90;99.90;;;;;;5109200;28;20046;-69
2020/12/05 10:07:18;;;;;;;33.75;20.23;;;4.00;99.90;;;;;;5091017;28;20040;-69
2020/12/05 10:09:44;;;;;;;38.00;21.40;;;3.90;99.90;;;;;;5110490;28;20151;-69
2020/12/05 10:12:12;;;;;;;37.97;21.98;;;4.00;99.90;;;;;;5108473;28;20039;-70
2020/12/05 10:14:41;;;;;;;36.63;21.35;;;4.00;99.90;;;;;;5110841;28;20487;-69
2020/12/05 10:17:13;;;;;;;35.13;21.08;;;4.10;99.90;;;;;;5107294;28;20150;-69
2020/12/05 10:19:39;;;;;;;36.00;21.20;;;4.10;99.90;;;;;;5103211;28;20108;-69
2020/12/05 10:22:18;;;;;;;35.28;21.35;;;4.10;99.90;;;;;;5092223;28;20606;-69
2020/12/05 10:24:45;;;;;;;37.03;21.38;;;4.00;99.90;;;;;;5109275;28;20051;-69
2020/12/05 10:27:12;;;;;;;33.95;20.27;;;4.00;99.90;;;;;;5109011;28;20488;-68
2020/12/05 10:29:38;;;;;;;35.35;19.00;;;3.90;99.90;;;;;;5106365;28;20053;-68
2020/12/05 10:32:05;;;;;;;34.03;20.23;;;3.90;99.90;;;;;;5109150;28;20528;-68
2020/12/05 10:34:31;;;;;;;32.97;19.95;;;3.80;99.90;;;;;;5108157;28;20426;-68
2020/12/05 10:36:58;;;;;;;32.38;19.55;;;3.90;99.90;;;;;;5109424;28;20047;-68
2020/12/05 10:39:24;;;;;;;34.90;19.65;;;4.00;99.90;;;;;;5108172;28;20055;-69
2020/12/05 10:41:55;;;;;;;34.90;20.75;;;4.00;99.90;;;;;;5110305;28;20054;-68
2020/12/05 10:44:23;;;;;;;36.58;21.08;;;4.10;99.90;;;;;;5107988;28;20063;-68
2020/12/05 10:46:49;;;;;;;31.88;19.42;;;4.20;99.90;;;;;;5108498;28;20114;-68
2020/12/05 10:49:18;;;;;;;35.42;20.27;;;4.20;99.90;;;;;;5109307;28;20124;-70
2020/12/05 10:51:48;;;;;;;36.85;20.73;;;4.30;99.90;;;;;;5108285;28;20081;-69
2020/12/05 10:54:14;;;;;;;33.58;19.77;;;4.20;99.90;;;;;;5109852;28;20097;-68
2020/12/05 10:56:41;;;;;;;34.63;20.30;;;4.20;99.90;;;;;;5107470;28;20053;-68
2020/12/05 10:59:09;;;;;;;37.60;20.73;;;4.20;99.90;;;;;;5110365;28;20062;-68
2020/12/05 11:01:40;;;;;;;39.40;21.40;;;4.20;99.90;;;;;;5113221;28;20048;-67
2020/12/05 11:04:06;;;;;;;35.17;21.48;;;4.20;99.90;;;;;;5112595;28;20419;-68
2020/12/05 11:06:33;;;;;;;35.70;21.33;;;4.10;99.90;;;;;;5112809;28;20044;-68
2020/12/05 11:08:59;;;;;;;38.08;22.27;;;4.10;99.90;;;;;;5112900;28;20047;-68
2020/12/05 11:11:26;;;;;;;40.13;20.35;;;4.00;99.90;;;;;;5112960;28;20051;-69
2020/12/05 11:13:52;;;;;;;34.17;20.17;;;4.00;99.90;;;;;;5098802;28;20044;-67
2020/12/05 11:16:20;;;;;;;33.00;19.20;;;3.90;99.90;;;;;;5113070;28;20504;-67
2020/12/05 11:18:48;;;;;;;32.63;19.25;;;3.90;99.90;;;;;;5112435;28;20463;-66
2020/12/05 11:21:15;;;;;;;31.83;19.95;;;3.90;99.90;;;;;;5113016;28;20047;-67
2020/12/05 11:23:42;;;;;;;35.50;20.77;;;4.00;99.90;;;;;;5094814;28;20043;-68
2020/12/05 11:26:09;;;;;;;34.65;19.48;;;4.00;99.90;;;;;;5111463;28;20538;-68
2020/12/05 11:28:36;;;;;;;32.88;19.27;;;4.00;99.90;;;;;;5110312;28;20051;-68
2020/12/05 11:31:02;;;;;;;32.85;19.15;;;4.00;99.90;;;;;;5113125;28;20052;-67
2020/12/05 11:33:29;;;;;;;31.00;18.80;;;4.10;99.90;;;;;;5113090;28;20453;-68
2020/12/05 11:35:55;;;;;;;33.13;19.02;;;4.10;99.90;;;;;;5111924;28;20143;-67
2020/12/05 11:38:22;;;;;;;36.10;19.45;;;4.10;99.90;;;;;;5113273;28;20418;-67
2020/12/05 11:40:49;;;;;;;32.65;18.67;;;4.20;99.90;;;;;;5110636;28;20409;-67
2020/12/05 11:43:15;;;;;;;31.98;19.33;;;4.20;99.90;;;;;;5112193;28;20048;-67
2020/12/05 11:45:42;;;;;;;32.95;19.10;;;4.20;99.90;;;;;;5093078;28;20073;-67
2020/12/05 11:48:09;;;;;;;29.75;17.42;;;4.20;99.90;;;;;;5111857;28;20478;-67
2020/12/05 11:50:36;;;;;;;30.00;17.33;;;4.20;99.90;;;;;;5112021;28;20043;-68
2020/12/05 11:53:06;;;;;;;27.33;16.38;;;4.30;99.90;;;;;;5110392;28;20501;-67
2020/12/05 11:55:32;;;;;;;31.30;18.95;;;4.30;99.90;;;;;;5095149;28;20048;-69
2020/12/05 11:58:00;;;;;;;30.20;18.67;;;4.40;99.90;;;;;;5112287;28;20052;-67
2020/12/05 12:00:27;;;;;;;32.53;19.42;;;4.50;99.90;;;;;;5110534;28;20052;-67
2020/12/05 12:02:54;;;;;;;28.13;17.70;;;4.60;99.90;;;;;;5111862;28;20474;-67
2020/12/05 12:05:21;;;;;;;26.38;16.38;;;4.60;99.90;;;;;;5111740;28;20066;-67
2020/12/05 12:07:48;;;;;;;33.25;20.30;;;4.60;99.90;;;;;;5111267;28;20411;-68
2020/12/05 12:10:17;;;;;;;41.28;19.98;;;4.60;99.90;;;;;;5111230;28;20129;-68
2020/12/05 12:12:44;;;;;;;29.63;17.65;;;4.60;99.90;;;;;;5111680;28;20058;-67
2020/12/05 12:15:14;;;;;;;29.13;17.17;;;4.60;99.90;;;;;;5110869;28;20047;-67
2020/12/05 12:17:42;;;;;;;26.48;17.27;;;4.60;99.90;;;;;;5110361;28;20438;-67
2020/12/05 12:20:09;;;;;;;25.75;16.20;;;4.50;99.90;;;;;;5110669;28;20051;-68
2020/12/05 12:22:36;;;;;;;31.75;17.45;;;4.50;99.90;;;;;;5113190;28;20541;-68
2020/12/05 12:25:04;;;;;;;26.45;16.25;;;4.50;99.90;;;;;;5111892;28;20498;-68
2020/12/05 12:27:30;;;;;;;27.90;18.02;;;4.50;99.90;;;;;;5111208;28;20459;-67
2020/12/05 12:29:57;;;;;;;29.75;17.60;;;4.60;99.90;;;;;;5109376;28;20051;-67
2020/12/05 12:32:23;;;;;;;32.53;18.67;;;4.60;99.90;;;;;;5111333;28;20043;-67
2020/12/05 12:34:51;;;;;;;31.35;19.75;;;4.60;99.90;;;;;;5109724;28;20555;-67
2020/12/05 12:37:20;;;;;;;43.47;23.60;;;4.80;99.90;;;;;;5112308;28;20055;-67
2020/12/05 12:39:47;;;;;;;28.92;17.70;;;4.80;99.90;;;;;;5112506;28;20071;-67
2020/12/05 12:42:17;;;;;;;27.77;18.15;;;4.90;99.90;;;;;;5111581;28;20043;-66
2020/12/05 12:44:46;;;;;;;27.20;16.17;;;4.90;99.90;;;;;;5093135;28;20051;-67
2020/12/05 12:50:02;;;;;;;28.42;16.83;;;4.90;99.90;;;;;;5110358;28;20051;-67
2020/12/05 12:52:29;;;;;;;25.90;16.90;;;5.00;99.90;;;;;;5110869;28;20043;-67